Time;durP1;ratioP1;P1;durP2;ratioP2;P2;SDS_P1;SDS_P2;PMS_P1;PMS_P2;Temp;Humidity;BMP_temperature;BMP_pressure;BME280_temperature;BME280_humidity;BME280_pressure;Samples;Min_cycle;Max_cycle;Signal;HPM_P1;HPM_P2
2021/08/25 00:01:13;;;;;;;;;;;;;;;21.75;73.73;101342.81;1809706;79;20181;-74
2021/08/25 00:03:45;;;;;;;;;;;;;;;21.75;73.66;101335.14;1809568;79;20293;-74
2021/08/25 00:06:16;;;;;;;;;;;;;;;21.73;73.63;101336.61;1809775;79;20177;-74
2021/08/25 00:08:48;;;;;;;;;;;;;;;21.69;73.75;101332.77;1809601;79;20276;-78
2021/08/25 00:11:19;;;;;;;;;;;;;;;21.68;73.90;101329.09;1808039;79;20606;-77
2021/08/25 00:13:52;;;;;;;;;;;;;;;21.68;74.00;101326.27;1809573;79;20245;-73
2021/08/25 00:16:27;;;;;;;;;;;;;;;21.68;74.03;101336.73;1809424;79;20204;-74
2021/08/25 00:19:25;;;;;;;;;;;;;;;21.66;74.16;101334.21;1809590;78;20550;-75
2021/08/25 00:21:56;;;;;;;;;;;;;;;21.67;74.20;101333.64;1809644;79;20221;-74
2021/08/25 00:24:30;;;;;;;;;;;;;;;21.69;74.21;101337.02;1809681;79;20241;-75
2021/08/25 00:27:02;;;;;;;;;;;;;;;21.69;74.31;101343.48;1809499;79;20221;-74
2021/08/25 00:29:34;;;;;;;;;;;;;;;21.71;74.37;101334.70;1807968;79;20177;-74
2021/08/25 00:32:06;;;;;;;;;;;;;;;21.75;74.34;101335.14;1812135;74;20654;-71
2021/08/25 00:34:37;;;;;;;;;;;;;;;21.78;74.23;101340.17;1805227;79;20276;-70
2021/08/25 00:37:09;;;;;;;;;;;;;;;21.77;74.24;101339.89;1809427;79;20249;-70
2021/08/25 00:39:41;;;;;;;;;;;;;;;21.74;74.30;101340.55;1806692;79;20614;-73
2021/08/25 00:42:13;;;;;;;;;;;;;;;21.69;74.41;101337.83;1814554;79;20221;-73
2021/08/25 00:44:46;;;;;;;;;;;;;;;21.70;74.51;101338.68;1816684;79;20265;-71
2021/08/25 00:47:17;;;;;;;;;;;;;;;21.71;74.67;101343.17;1816441;79;20209;-73
2021/08/25 00:49:52;;;;;;;;;;;;;;;21.73;74.73;101338.03;1814560;79;20272;-71
2021/08/25 00:52:24;;;;;;;;;;;;;;;21.72;74.74;101328.73;1814324;79;20549;-74
2021/08/25 00:54:55;;;;;;;;;;;;;;;21.68;74.79;101326.83;1814207;79;20185;-72
2021/08/25 00:57:27;;;;;;;;;;;;;;;21.66;74.85;101329.97;1814088;79;20181;-71
2021/08/25 00:59:59;;;;;;;;;;;;;;;21.61;74.97;101332.91;1814220;79;20181;-71
2021/08/25 01:02:37;;;;;;;;;;;;;;;21.59;75.14;101327.31;1812309;79;20217;-73
2021/08/25 01:05:10;;;;;;;;;;;;;;;21.60;75.31;101330.39;1802112;79;20264;-74
2021/08/25 01:07:42;;;;;;;;;;;;;;;21.61;75.40;101325.84;1813812;75;20178;-73
2021/08/25 01:10:26;;;;;;;;;;;;;;;21.64;75.44;101329.43;1811877;79;20181;-73
2021/08/25 01:13:00;;;;;;;;;;;;;;;21.65;75.38;101329.69;1812043;79;20335;-74
2021/08/25 01:15:33;;;;;;;;;;;;;;;21.62;75.35;101326.09;1810998;79;20241;-73
2021/08/25 01:18:06;;;;;;;;;;;;;;;21.61;75.44;101320.75;1812054;79;20627;-74
2021/08/25 01:20:39;;;;;;;;;;;;;;;21.61;75.51;101317.92;1811897;79;20602;-73
2021/08/25 01:23:12;;;;;;;;;;;;;;;21.61;75.59;101320.19;1787863;79;20185;-73
2021/08/25 01:25:44;;;;;;;;;;;;;;;21.62;75.62;101323.27;1811922;79;20368;-73
2021/08/25 01:28:19;;;;;;;;;;;;;;;21.65;75.55;101320.38;1811829;79;20209;-74
2021/08/25 01:30:51;;;;;;;;;;;;;;;21.67;75.42;101327.43;1810736;78;20219;-74
2021/08/25 01:33:23;;;;;;;;;;;;;;;21.66;75.34;101333.36;1801681;77;20620;-71
2021/08/25 01:35:56;;;;;;;;;;;;;;;21.60;75.36;101329.83;1847640;77;20174;-72
2021/08/25 01:38:36;;;;;;;;;;;;;;;21.60;75.44;101325.59;1804115;79;20291;-70
2021/08/25 01:41:07;;;;;;;;;;;;;;;21.61;75.55;101323.02;1814395;79;20248;-73
2021/08/25 01:43:39;;;;;;;;;;;;;;;21.64;75.52;101324.38;1813669;79;20252;-72
2021/08/25 01:46:26;;;;;;;;;;;;;;;21.61;75.55;101330.08;1788059;80;20191;-73
2021/08/25 01:48:59;;;;;;;;;;;;;;;21.55;75.61;101322.88;1808131;79;20285;-73
2021/08/25 01:51:38;;;;;;;;;;;;;;;21.50;75.74;101323.55;1744813;82;20539;-70
2021/08/25 01:54:13;;;;;;;;;;;;;;;21.46;75.83;101321.12;1810291;79;20308;-70
2021/08/25 01:56:44;;;;;;;;;;;;;;;21.46;75.99;101325.36;1810335;79;20281;-69
2021/08/25 01:59:16;;;;;;;;;;;;;;;21.46;76.06;101319.11;1810473;79;20325;-71
2021/08/25 02:01:48;;;;;;;;;;;;;;;21.45;76.05;101316.62;1810381;79;20618;-72
2021/08/25 02:04:19;;;;;;;;;;;;;;;21.48;76.06;101314.56;1810419;79;20264;-69
2021/08/25 02:06:53;;;;;;;;;;;;;;;21.48;76.04;101314.56;1810522;79;20546;-73
2021/08/25 02:09:26;;;;;;;;;;;;;;;21.47;76.05;101312.89;1816402;79;20252;-72
2021/08/25 02:11:58;;;;;;;;;;;;;;;21.47;76.16;101312.89;1818958;79;20248;-71
2021/08/25 02:14:29;;;;;;;;;;;;;;;21.49;76.18;101316.23;1818869;79;20264;-74
2021/08/25 02:17:02;;;;;;;;;;;;;;;21.52;76.12;101315.02;1818803;79;20244;-73
2021/08/25 02:19:34;;;;;;;;;;;;;;;21.51;76.04;101313.94;1818833;79;20577;-73
2021/08/25 02:22:07;;;;;;;;;;;;;;;21.50;76.05;101320.72;1819026;79;20249;-74
2021/08/25 02:24:38;;;;;;;;;;;;;;;21.44;76.12;101320.58;1818886;79;20311;-72
2021/08/25 02:27:09;;;;;;;;;;;;;;;21.42;76.25;101313.85;1818937;79;20288;-73
2021/08/25 02:29:41;;;;;;;;;;;;;;;21.45;76.37;101316.62;1818938;79;20559;-72
2021/08/25 02:32:12;;;;;;;;;;;;;;;21.42;76.41;101315.27;1821335;77;20277;-71
2021/08/25 02:34:45;;;;;;;;;;;;;;;21.43;76.36;101316.08;1791713;79;20537;-72
2021/08/25 02:37:17;;;;;;;;;;;;;;;21.45;76.28;101316.62;1818884;79;20276;-73
2021/08/25 02:39:49;;;;;;;;;;;;;;;21.44;76.19;101317.75;1819124;79;20256;-75
2021/08/25 02:42:20;;;;;;;;;;;;;;;21.39;76.21;101312.23;1820686;79;20277;-72
2021/08/25 02:44:51;;;;;;;;;;;;;;;21.34;76.40;101320.83;1820638;79;20557;-70
2021/08/25 02:47:23;;;;;;;;;;;;;;;21.36;76.46;101318.51;1819641;79;20526;-71
2021/08/25 02:49:55;;;;;;;;;;;;;;;21.36;76.47;101319.92;1819096;79;20188;-71
2021/08/25 02:52:27;;;;;;;;;;;;;;;21.37;76.45;101314.52;1818786;77;20311;-72
2021/08/25 02:55:01;;;;;;;;;;;;;;;21.36;76.44;101312.30;1817416;79;20224;-72
2021/08/25 02:57:32;;;;;;;;;;;;;;;21.32;76.46;101308.42;1818890;79;20189;-75
2021/08/25 03:00:05;;;;;;;;;;;;;;;21.32;76.59;101314.07;1818922;79;20542;-73
2021/08/25 03:02:37;;;;;;;;;;;;;;;21.34;76.60;101303.27;1814596;77;20250;-75
2021/08/25 03:05:09;;;;;;;;;;;;;;;21.37;76.57;101306.05;1819716;79;20609;-75
2021/08/25 03:07:41;;;;;;;;;;;;;;;21.35;76.55;101306.39;1819496;79;20456;-76
2021/08/25 03:10:13;;;;;;;;;;;;;;;21.30;76.59;101301.41;1813303;79;20206;-73
2021/08/25 03:12:45;;;;;;;;;;;;;;;21.27;76.66;101300.64;1810797;79;20307;-74
2021/08/25 03:15:17;;;;;;;;;;;;;;;21.26;76.77;101306.01;1810672;79;20189;-74
2021/08/25 03:17:49;;;;;;;;;;;;;;;21.27;76.78;101302.05;1810617;79;20314;-75
2021/08/25 03:20:22;;;;;;;;;;;;;;;21.31;76.86;101303.92;1811796;79;20265;-72
2021/08/25 03:22:54;;;;;;;;;;;;;;;21.33;76.82;101303.02;1796447;76;20184;-75
2021/08/25 03:25:26;;;;;;;;;;;;;;;21.33;76.73;101310.69;1762621;79;20182;-76
2021/08/25 03:27:58;;;;;;;;;;;;;;;21.27;76.81;101314.18;1769957;80;20253;-75
2021/08/25 03:30:29;;;;;;;;;;;;;;;21.26;76.89;101307.42;1773155;80;20174;-77
2021/08/25 03:33:06;;;;;;;;;;;;;;;21.30;77.01;101312.15;1775446;80;20257;-77
2021/08/25 03:35:37;;;;;;;;;;;;;;;21.31;77.06;101307.31;1769988;80;20254;-76
2021/08/25 03:38:10;;;;;;;;;;;;;;;21.33;77.11;101305.03;1770517;80;20253;-75
2021/08/25 03:40:43;;;;;;;;;;;;;;;21.33;77.12;101307.27;1770121;81;20293;-79
2021/08/25 03:43:15;;;;;;;;;;;;;;;21.32;77.12;101307.56;1770608;81;20182;-77
2021/08/25 03:45:46;;;;;;;;;;;;;;;21.30;77.20;101307.91;1771498;80;20229;-76
2021/08/25 03:48:18;;;;;;;;;;;;;;;21.30;77.33;101315.53;1770918;80;20178;-77
2021/08/25 03:50:50;;;;;;;;;;;;;;;21.34;77.40;101310.94;1771505;79;20289;-76
2021/08/25 03:53:21;;;;;;;;;;;;;;;21.36;77.54;101308.62;1779437;80;20540;-73
2021/08/25 03:55:53;;;;;;;;;;;;;;;21.44;77.48;101316.34;1769914;79;20210;-73
2021/08/25 03:58:25;;;;;;;;;;;;;;;21.51;77.34;101313.94;1798409;80;20281;-75
2021/08/25 04:00:56;;;;;;;;;;;;;;;21.54;77.21;101312.72;1799550;79;20238;-77
2021/08/25 04:03:30;;;;;;;;;;;;;;;21.56;77.22;101314.64;1734137;82;20293;-74
2021/08/25 04:06:04;;;;;;;;;;;;;;;21.61;77.26;101317.36;1756090;81;20321;-73
2021/08/25 04:08:36;;;;;;;;;;;;;;;21.69;77.35;101309.55;1755775;80;20280;-76
2021/08/25 04:11:07;;;;;;;;;;;;;;;21.79;77.33;101316.39;1749440;80;20591;-74
2021/08/25 04:13:40;;;;;;;;;;;;;;;21.84;77.14;101316.84;1778577;80;20216;-81
2021/08/25 04:16:13;;;;;;;;;;;;;;;21.86;77.18;101313.10;1782176;79;20362;-76
2021/08/25 04:18:45;;;;;;;;;;;;;;;21.94;77.25;101309.53;1801503;80;20596;-79
2021/08/25 04:21:19;;;;;;;;;;;;;;;22.05;77.24;101312.33;1771864;79;20189;-75
2021/08/25 04:23:52;;;;;;;;;;;;;;;22.18;77.10;101308.03;1784674;79;20181;-76
2021/08/25 04:26:26;;;;;;;;;;;;;;;22.27;77.08;101308.09;1840172;77;20166;-78
2021/08/25 04:28:57;;;;;;;;;;;;;;;22.35;77.00;101306.73;1849322;77;20613;-73
2021/08/25 04:31:29;;;;;;;;;;;;;;;22.45;76.97;101304.23;1849194;77;20250;-73
2021/08/25 04:34:03;;;;;;;;;;;;;;;22.54;77.03;101305.95;1829561;77;20304;-73
2021/08/25 04:36:35;;;;;;;;;;;;;;;22.66;77.18;101303.91;1815023;77;20220;-73
2021/08/25 04:39:08;;;;;;;;;;;;;;;22.87;77.40;101303.01;1808127;78;20257;-74
2021/08/25 04:41:41;;;;;;;;;;;;;;;23.18;77.38;101298.17;1809079;78;20193;-74
2021/08/25 04:44:12;;;;;;;;;;;;;;;23.56;76.92;101298.38;1814025;78;20177;-74
2021/08/25 04:46:44;;;;;;;;;;;;;;;23.95;76.21;101291.99;1832583;77;20264;-74
2021/08/25 04:49:16;;;;;;;;;;;;;;;24.38;75.41;101292.75;1814281;78;20253;-75
2021/08/25 04:51:58;;;;;;;;;;;;;;;24.79;74.07;101289.30;1811042;77;20283;-72
2021/08/25 04:54:31;;;;;;;;;;;;;;;25.18;73.14;101287.53;1822321;77;20268;-73
2021/08/25 04:57:02;;;;;;;;;;;;;;;25.56;72.05;101291.16;1839951;77;20255;-72
2021/08/25 04:59:34;;;;;;;;;;;;;;;25.84;71.55;101289.44;1815104;78;20275;-73
2021/08/25 05:02:05;;;;;;;;;;;;;;;26.19;70.87;101287.94;1816065;78;20308;-71
2021/08/25 05:04:37;;;;;;;;;;;;;;;26.58;70.26;101293.09;1818679;78;20556;-71
2021/08/25 05:07:09;;;;;;;;;;;;;;;27.02;69.15;101295.05;1835853;78;20251;-81
2021/08/25 05:09:41;;;;;;;;;;;;;;;27.34;68.20;101291.48;1816109;78;20256;-72
2021/08/25 05:12:15;;;;;;;;;;;;;;;27.58;67.55;101290.64;1807266;79;20178;-74
2021/08/25 05:14:48;;;;;;;;;;;;;;;27.85;66.63;101287.02;1810340;77;20288;-73
2021/08/25 05:17:20;;;;;;;;;;;;;;;28.12;65.74;101282.75;1814092;78;20261;-73
2021/08/25 05:19:55;;;;;;;;;;;;;;;28.50;65.08;101275.09;1821372;77;20257;-75
2021/08/25 05:22:30;;;;;;;;;;;;;;;28.80;64.09;101275.70;1814616;78;20584;-80
2021/08/25 05:25:02;;;;;;;;;;;;;;;29.04;63.32;101276.97;1796287;78;20281;-81
2021/08/25 05:27:35;;;;;;;;;;;;;;;29.22;62.64;101269.66;1807016;78;20219;-77
2021/08/25 05:30:08;;;;;;;;;;;;;;;29.38;62.23;101273.34;1788747;80;20217;-77
2021/08/25 05:32:41;;;;;;;;;;;;;;;29.60;61.89;101269.78;1799644;79;20625;-81
2021/08/25 05:35:13;;;;;;;;;;;;;;;29.82;61.09;101263.92;1804623;79;20176;-76
2021/08/25 05:37:47;;;;;;;;;;;;;;;29.95;60.67;101253.38;1805631;79;20575;-82
2021/08/25 05:40:21;;;;;;;;;;;;;;;30.14;59.68;101248.29;1805422;79;20333;-78
2021/08/25 05:42:53;;;;;;;;;;;;;;;30.32;59.12;101245.17;1805515;79;20181;-79
2021/08/25 05:45:24;;;;;;;;;;;;;;;30.54;58.84;101248.66;1805466;79;20216;-77
2021/08/25 05:47:59;;;;;;;;;;;;;;;30.75;58.16;101245.59;1805304;79;20189;-78
2021/08/25 05:50:31;;;;;;;;;;;;;;;30.96;58.33;101245.14;1805784;79;20247;-78
2021/08/25 05:53:04;;;;;;;;;;;;;;;31.04;57.65;101249.19;1805466;79;20185;-80
2021/08/25 05:55:38;;;;;;;;;;;;;;;31.11;57.18;101249.92;1805488;79;20261;-82
2021/08/25 05:58:09;;;;;;;;;;;;;;;31.14;55.97;101254.28;1805587;78;20206;-82
2021/08/25 06:00:53;;;;;;;;;;;;;;;31.19;55.16;101253.16;1805605;79;20184;-78
2021/08/25 06:03:24;;;;;;;;;;;;;;;31.27;53.84;101249.17;1805588;79;20345;-77
2021/08/25 06:05:56;;;;;;;;;;;;;;;31.43;53.03;101255.58;1805558;79;20583;-77
2021/08/25 06:08:28;;;;;;;;;;;;;;;31.52;52.88;101255.52;1805770;79;20241;-76
2021/08/25 06:11:00;;;;;;;;;;;;;;;31.73;52.87;101254.41;1805761;79;20270;-77
2021/08/25 06:13:32;;;;;;;;;;;;;;;31.94;51.76;101251.83;1805605;79;20534;-80
2021/08/25 06:16:05;;;;;;;;;;;;;;;32.06;50.80;101261.64;1805525;79;20598;-82
2021/08/25 06:18:38;;;;;;;;;;;;;;;32.09;50.21;101262.91;1805710;79;20177;-75
2021/08/25 06:21:11;;;;;;;;;;;;;;;32.12;49.28;101267.27;1806972;79;20280;-75
2021/08/25 06:23:44;;;;;;;;;;;;;;;32.21;48.71;101272.09;1801799;79;20185;-80
2021/08/25 06:26:16;;;;;;;;;;;;;;;32.32;48.40;101268.77;1823533;79;20253;-81
2021/08/25 06:28:47;;;;;;;;;;;;;;;32.48;47.74;101267.09;1824291;79;20287;-77
2021/08/25 06:31:19;;;;;;;;;;;;;;;32.56;47.27;101255.27;1824571;79;20248;-76
2021/08/25 06:33:53;;;;;;;;;;;;;;;32.68;46.60;101255.58;1824646;79;20188;-75
2021/08/25 06:36:26;;;;;;;;;;;;;;;32.78;46.45;101258.61;1824699;79;20315;-75
2021/08/25 06:38:59;;;;;;;;;;;;;;;32.90;46.62;101265.52;1824739;79;20265;-76
2021/08/25 06:41:32;;;;;;;;;;;;;;;32.94;46.08;101261.23;1824694;79;20558;-75
2021/08/25 06:44:04;;;;;;;;;;;;;;;32.86;45.99;101267.52;1824398;79;20180;-83
2021/08/25 06:46:36;;;;;;;;;;;;;;;32.76;44.49;101263.11;1824682;79;20286;-79
2021/08/25 06:49:09;;;;;;;;;;;;;;;32.67;43.80;101265.44;1825019;75;20244;-71
2021/08/25 06:51:41;;;;;;;;;;;;;;;32.52;44.67;101267.34;1821015;79;20247;-78
2021/08/25 06:54:13;;;;;;;;;;;;;;;32.48;44.71;101260.73;1825406;77;20215;-73
2021/08/25 06:56:45;;;;;;;;;;;;;;;32.43;44.95;101271.16;1825634;77;20239;-75
2021/08/25 06:59:16;;;;;;;;;;;;;;;32.39;44.88;101273.16;1825975;79;20255;-74
2021/08/25 07:01:48;;;;;;;;;;;;;;;32.39;45.26;101276.03;1825743;79;20246;-75
2021/08/25 07:04:20;;;;;;;;;;;;;;;32.44;44.59;101278.56;1825099;79;20235;-75
2021/08/25 07:06:52;;;;;;;;;;;;;;;32.49;44.78;101282.53;1825133;79;20183;-76
2021/08/25 07:09:25;;;;;;;;;;;;;;;32.37;44.34;101278.48;1825252;79;20171;-76
2021/08/25 07:11:57;;;;;;;;;;;;;;;32.28;45.04;101288.02;1825701;79;20286;-78
2021/08/25 07:14:28;;;;;;;;;;;;;;;32.19;43.96;101286.05;1825761;79;20258;-75
2021/08/25 07:17:00;;;;;;;;;;;;;;;32.02;44.68;101288.08;1825508;79;20235;-75
2021/08/25 07:19:32;;;;;;;;;;;;;;;31.96;44.84;101284.52;1791637;76;20322;-79
2021/08/25 07:22:04;;;;;;;;;;;;;;;31.87;44.50;101284.80;1789324;80;20172;-79
2021/08/25 07:24:37;;;;;;;;;;;;;;;31.75;43.82;101286.48;1783975;80;20187;-77
2021/08/25 07:27:08;;;;;;;;;;;;;;;31.58;44.12;101282.70;1823567;77;20583;-76
2021/08/25 07:29:40;;;;;;;;;;;;;;;31.39;44.68;101286.28;1824109;79;20242;-79
2021/08/25 07:32:11;;;;;;;;;;;;;;;31.10;44.75;101285.56;1823870;79;20274;-76
2021/08/25 07:34:43;;;;;;;;;;;;;;;30.88;44.67;101285.80;1823822;77;20261;-79
2021/08/25 07:37:15;;;;;;;;;;;;;;;30.71;45.30;101279.16;1823868;79;20198;-77
2021/08/25 07:39:47;;;;;;;;;;;;;;;30.61;44.99;101276.88;1823636;79;20217;-76
2021/08/25 07:42:19;;;;;;;;;;;;;;;30.48;44.50;101279.70;1823615;78;20187;-77
2021/08/25 07:44:50;;;;;;;;;;;;;;;30.38;44.88;101278.88;1824110;77;20258;-78
2021/08/25 07:47:22;;;;;;;;;;;;;;;30.34;45.27;101276.56;1823998;79;20254;-77
2021/08/25 07:49:55;;;;;;;;;;;;;;;30.36;45.03;101274.13;1823851;78;20241;-80
2021/08/25 07:52:26;;;;;;;;;;;;;;;30.37;45.12;101273.55;1824159;79;20226;-75
2021/08/25 07:54:58;;;;;;;;;;;;;;;30.40;44.83;101275.05;1823621;77;20187;-81
2021/08/25 07:57:31;;;;;;;;;;;;;;;30.32;44.90;101273.84;1823461;79;20430;-80
2021/08/25 08:00:03;;;;;;;;;;;;;;;30.27;45.14;101275.58;1823510;79;20242;-77
2021/08/25 08:02:35;;;;;;;;;;;;;;;30.25;45.05;101271.66;1823477;79;20243;-78
2021/08/25 08:05:08;;;;;;;;;;;;;;;30.31;45.51;101274.44;1823590;79;20290;-83
2021/08/25 08:07:41;;;;;;;;;;;;;;;30.41;45.75;101273.83;1823517;77;20191;-77
2021/08/25 08:10:13;;;;;;;;;;;;;;;30.51;44.82;101270.31;1823481;79;20246;-78
2021/08/25 08:12:44;;;;;;;;;;;;;;;30.58;45.10;101263.90;1823620;79;20246;-79
2021/08/25 08:15:16;;;;;;;;;;;;;;;30.64;45.19;101261.81;1823557;79;20254;-76
2021/08/25 08:17:47;;;;;;;;;;;;;;;30.74;45.27;101266.09;1823486;79;20226;-77
2021/08/25 08:20:19;;;;;;;;;;;;;;;30.80;44.76;101262.50;1822247;79;20235;-75
2021/08/25 08:22:54;;;;;;;;;;;;;;;30.90;44.72;101259.59;1818122;79;20211;-76
2021/08/25 08:25:26;;;;;;;;;;;;;;;30.91;44.24;101255.50;1818081;79;20250;-75
2021/08/25 08:27:57;;;;;;;;;;;;;;;30.81;43.39;101266.21;1818069;77;20242;-75
2021/08/25 08:30:29;;;;;;;;;;;;;;;30.66;43.86;101257.95;1818049;77;20320;-78
2021/08/25 08:33:01;;;;;;;;;;;;;;;30.50;43.60;101261.49;1818433;79;20255;-79
2021/08/25 08:35:36;;;;;;;;;;;;;;;30.27;42.94;101258.38;1818188;79;20290;-78
2021/08/25 08:38:07;;;;;;;;;;;;;;;29.95;43.67;101256.87;1818146;79;20246;-84
2021/08/25 08:40:41;;;;;;;;;;;;;;;29.76;44.61;101251.09;1818005;77;20227;-82
2021/08/25 08:43:13;;;;;;;;;;;;;;;29.66;44.85;101263.17;1818111;79;20215;-76
2021/08/25 08:45:45;;;;;;;;;;;;;;;29.54;44.89;101254.09;1818153;79;20215;-78
2021/08/25 08:48:17;;;;;;;;;;;;;;;29.40;44.94;101258.03;1818253;77;20273;-79
2021/08/25 08:50:54;;;;;;;;;;;;;;;29.31;45.03;101251.70;1818058;79;20179;-80
2021/08/25 08:53:26;;;;;;;;;;;;;;;29.30;45.02;101250.05;1816974;76;20294;-79
2021/08/25 08:55:58;;;;;;;;;;;;;;;29.35;45.41;101248.30;1813908;79;20251;-80
2021/08/25 08:58:32;;;;;;;;;;;;;;;29.32;45.63;101241.91;1813292;79;20250;-82
2021/08/25 09:01:04;;;;;;;;;;;;;;;29.32;45.90;101237.61;1813185;79;20322;-83
2021/08/25 09:03:39;;;;;;;;;;;;;;;29.35;46.61;101239.71;1812817;79;20270;-80
2021/08/25 09:06:12;;;;;;;;;;;;;;;29.41;47.20;101233.11;1803619;79;20255;-79
2021/08/25 09:08:46;;;;;;;;;;;;;;;29.46;46.61;101239.98;1787929;79;20290;-73
2021/08/25 09:11:19;;;;;;;;;;;;;;;29.36;46.43;101231.38;1792422;79;20286;-84
2021/08/25 09:13:52;;;;;;;;;;;;;;;29.28;46.57;101235.25;1791716;79;20259;-71
2021/08/25 09:16:30;;;;;;;;;;;;;;;29.19;47.18;101231.78;1790795;79;20275;-74
2021/08/25 09:21:50;;;;;;;;;;;;;;;29.12;48.05;101224.46;1783041;79;20609;-83
2021/08/25 09:24:24;;;;;;;;;;;;;;;29.15;47.79;101225.12;1769233;79;20256;-80
2021/08/25 09:27:10;;;;;;;;;;;;;;;29.17;48.71;101228.44;1783166;79;20268;-76
2021/08/25 09:29:47;;;;;;;;;;;;;;;29.14;48.73;101223.48;1805583;78;20516;-74
2021/08/25 09:32:19;;;;;;;;;;;;;;;29.10;48.88;101213.16;1756404;79;20222;-74
2021/08/25 09:34:55;;;;;;;;;;;;;;;29.06;49.59;101215.93;1790708;79;20255;-76
2021/08/25 09:37:28;;;;;;;;;;;;;;;29.01;49.93;101214.78;1789255;79;20307;-72
2021/08/25 09:40:01;;;;;;;;;;;;;;;29.02;49.68;101212.14;1788194;79;20211;-76
2021/08/25 09:42:47;;;;;;;;;;;;;;;29.01;49.69;101217.64;1789234;79;20283;-79
2021/08/25 09:45:19;;;;;;;;;;;;;;;28.97;49.06;101203.84;1792351;78;21057;-74
2021/08/25 09:47:54;;;;;;;;;;;;;;;28.94;48.95;101198.84;1790312;79;20183;-76
2021/08/25 09:50:28;;;;;;;;;;;;;;;28.94;49.21;101193.70;1787654;79;20192;-76
2021/08/25 09:53:00;;;;;;;;;;;;;;;28.92;49.15;101191.20;1787100;79;20598;-76
2021/08/25 09:55:35;;;;;;;;;;;;;;;28.96;48.44;101196.46;1793955;78;20175;-74
2021/08/25 09:58:10;;;;;;;;;;;;;;;28.95;48.11;101195.39;1765021;79;20237;-81
2021/08/25 10:00:42;;;;;;;;;;;;;;;28.94;48.63;101180.24;1792727;79;20544;-71
2021/08/25 10:03:16;;;;;;;;;;;;;;;28.92;48.46;101184.05;1763426;79;20284;-77
2021/08/25 10:05:48;;;;;;;;;;;;;;;28.90;48.59;101185.63;1788069;79;20252;-71
2021/08/25 10:08:19;;;;;;;;;;;;;;;28.92;48.43;101179.77;1795117;79;20252;-71
2021/08/25 10:10:52;;;;;;;;;;;;;;;28.88;47.62;101183.16;1801731;79;20209;-78
2021/08/25 10:13:29;;;;;;;;;;;;;;;28.83;47.18;101185.45;1802954;79;20290;-72
2021/08/25 10:16:01;;;;;;;;;;;;;;;28.81;46.90;101172.95;1792760;79;20191;-71
2021/08/25 10:18:43;;;;;;;;;;;;;;;28.84;46.24;101183.66;1762646;79;20271;-75
2021/08/25 10:21:37;;;;;;;;;;;;;;;28.90;46.46;101180.75;1790846;79;20193;-81
2021/08/25 10:24:09;;;;;;;;;;;;;;;28.97;46.63;101182.37;1788317;79;20187;-75
2021/08/25 10:27:01;;;;;;;;;;;;;;;29.04;47.43;101179.69;1791115;79;20238;-70
2021/08/25 10:29:39;;;;;;;;;;;;;;;29.05;45.48;101178.47;1805367;78;20230;-79
2021/08/25 10:32:12;;;;;;;;;;;;;;;28.95;44.90;101181.94;1777720;79;20842;-78
2021/08/25 10:34:45;;;;;;;;;;;;;;;28.87;44.51;101182.91;1798613;79;20230;-78
2021/08/25 10:37:26;;;;;;;;;;;;;;;28.81;44.48;101177.86;1807919;79;20179;-76
2021/08/25 10:39:58;;;;;;;;;;;;;;;28.80;43.57;101173.34;1802291;79;20186;-75
2021/08/25 10:43:01;;;;;;;;;;;;;;;28.77;42.99;101176.93;1804743;79;20520;-76
2021/08/25 10:45:46;;;;;;;;;;;;;;;28.77;43.87;101172.64;1791531;79;20173;-77
2021/08/25 10:48:21;;;;;;;;;;;;;;;28.78;42.79;101175.14;1808213;79;20167;-74
2021/08/25 10:50:58;;;;;;;;;;;;;;;28.75;43.91;101171.61;1808510;79;20604;-73
2021/08/25 10:53:33;;;;;;;;;;;;;;;28.68;44.82;101165.68;1812124;79;20251;-76
2021/08/25 10:56:13;;;;;;;;;;;;;;;28.65;44.30;101166.44;1788918;78;20589;-72
2021/08/25 10:58:54;;;;;;;;;;;;;;;28.61;43.24;101165.50;1789984;79;20398;-78
2021/08/25 11:01:31;;;;;;;;;;;;;;;28.56;43.19;101160.68;1794497;79;20241;-75
2021/08/25 11:04:15;;;;;;;;;;;;;;;28.51;43.60;101160.37;1794971;78;20247;-74
2021/08/25 11:06:51;;;;;;;;;;;;;;;28.51;44.11;101163.23;1793152;79;20235;-79
2021/08/25 11:09:38;;;;;;;;;;;;;;;28.45;44.10;101160.41;1793317;79;20214;-75
2021/08/25 11:12:18;;;;;;;;;;;;;;;28.40;44.25;101164.97;1800528;79;20564;-81
2021/08/25 11:14:56;;;;;;;;;;;;;;;28.30;45.15;101155.47;1812405;78;20243;-80
2021/08/25 11:17:30;;;;;;;;;;;;;;;28.27;45.40;101156.23;1797285;78;20281;-79
2021/08/25 11:20:02;;;;;;;;;;;;;;;28.31;44.97;101153.46;1792452;79;20263;-74
2021/08/25 11:22:40;;;;;;;;;;;;;;;28.36;44.57;101142.60;1790341;79;20998;-81
2021/08/25 11:25:16;;;;;;;;;;;;;;;28.42;43.74;101141.13;1781570;79;20294;-76
2021/08/25 11:27:52;;;;;;;;;;;;;;;28.41;43.89;101131.48;1787925;79;20215;-69
2021/08/25 11:30:31;;;;;;;;;;;;;;;28.35;44.10;101135.20;1750953;79;20259;-72
2021/08/25 11:33:07;;;;;;;;;;;;;;;28.32;44.63;101131.63;1787299;79;20318;-72
2021/08/25 11:35:38;;;;;;;;;;;;;;;28.28;44.11;101127.88;1796293;79;20251;-81
2021/08/25 11:38:15;;;;;;;;;;;;;;;28.24;43.68;101124.08;1810879;79;20274;-72
2021/08/25 11:40:48;;;;;;;;;;;;;;;28.26;43.32;101126.58;1792846;79;20335;-85
2021/08/25 11:43:21;;;;;;;;;;;;;;;28.27;44.22;101123.36;1739272;79;20294;-83
2021/08/25 11:45:53;;;;;;;;;;;;;;;28.30;42.94;101120.37;1769647;79;20176;-77
2021/08/25 11:48:30;;;;;;;;;;;;;;;28.34;41.21;101114.97;1794127;79;20322;-76
2021/08/25 11:51:05;;;;;;;;;;;;;;;28.34;41.39;101114.13;1789326;79;20307;-71
2021/08/25 11:53:38;;;;;;;;;;;;;;;28.35;42.21;101108.05;1794044;79;20342;-89
2021/08/25 11:56:10;;;;;;;;;;;;;;;28.35;41.10;101116.62;1766640;79;20204;-71
2021/08/25 11:58:43;;;;;;;;;;;;;;;28.38;40.65;101116.52;1788678;79;20275;-77
2021/08/25 12:01:23;;;;;;;;;;;;;;;28.39;40.81;101111.87;1794748;79;20260;-84
2021/08/25 12:03:55;;;;;;;;;;;;;;;28.38;41.38;101110.18;1791912;79;20244;-87
2021/08/25 12:06:46;;;;;;;;;;;;;;;28.39;42.57;101119.59;1788635;79;20180;-76
2021/08/25 12:09:37;;;;;;;;;;;;;;;28.37;41.50;101114.25;1787634;78;20301;-73
2021/08/25 12:12:09;;;;;;;;;;;;;;;28.37;41.79;101118.53;1792652;79;20292;-75
2021/08/25 12:14:51;;;;;;;;;;;;;;;28.33;41.81;101110.45;1789048;79;20326;-75
2021/08/25 12:17:24;;;;;;;;;;;;;;;28.30;41.85;101109.75;1788064;79;20594;-70
2021/08/25 12:19:56;;;;;;;;;;;;;;;28.29;42.57;101115.23;1798324;79;20664;-83
2021/08/25 12:22:32;;;;;;;;;;;;;;;28.31;42.62;101105.69;1791424;79;20220;-71
2021/08/25 12:25:04;;;;;;;;;;;;;;;28.32;42.55;101105.91;1789609;79;20616;-71
2021/08/25 12:27:45;;;;;;;;;;;;;;;28.34;43.02;101097.81;1790307;79;20322;-69
2021/08/25 12:30:20;;;;;;;;;;;;;;;28.36;43.68;101100.31;1785871;79;20191;-72
2021/08/25 12:32:51;;;;;;;;;;;;;;;28.37;43.82;101102.00;1787644;79;20278;-71
2021/08/25 12:35:25;;;;;;;;;;;;;;;28.36;44.25;101101.16;1792825;79;20315;-72
2021/08/25 12:37:58;;;;;;;;;;;;;;;28.36;44.73;101094.59;1784955;79;20510;-71
2021/08/25 12:40:31;;;;;;;;;;;;;;;28.34;44.64;101095.55;1790156;79;20211;-70
2021/08/25 12:43:03;;;;;;;;;;;;;;;28.32;44.75;101093.05;1787890;79;20470;-71
2021/08/25 12:45:36;;;;;;;;;;;;;;;28.31;44.59;101089.97;1789827;79;20250;-70
2021/08/25 12:48:08;;;;;;;;;;;;;;;28.30;43.57;101088.31;1793233;79;20268;-83
2021/08/25 12:50:39;;;;;;;;;;;;;;;28.32;43.40;101094.48;1788758;79;20238;-71
2021/08/25 12:53:11;;;;;;;;;;;;;;;28.32;43.81;101093.05;1790384;79;20307;-68
2021/08/25 12:55:43;;;;;;;;;;;;;;;28.33;43.96;101089.61;1787844;79;20243;-73
2021/08/25 12:58:15;;;;;;;;;;;;;;;28.32;44.17;101084.47;1796139;79;20296;-71
2021/08/25 13:00:48;;;;;;;;;;;;;;;28.30;43.63;101085.45;1802206;79;20683;-75
2021/08/25 13:03:23;;;;;;;;;;;;;;;28.30;43.58;101083.22;1788345;79;20316;-72
2021/08/25 13:05:58;;;;;;;;;;;;;;;28.28;43.05;101082.15;1795015;79;20187;-83
2021/08/25 13:08:34;;;;;;;;;;;;;;;28.28;43.93;101072.73;1793418;78;20182;-77
2021/08/25 13:11:07;;;;;;;;;;;;;;;28.26;43.69;101069.42;1796775;79;20308;-72